Time;durP1;ratioP1;P1;durP2;ratioP2;P2;SDS_P1;SDS_P2;PMS_P1;PMS_P2;Temp;Humidity;BMP_temperature;BMP_pressure;BME280_temperature;BME280_humidity;BME280_pressure;Samples;Min_cycle;Max_cycle;Signal;HPM_P1;HPM_P2
2022/01/25 16:03:54;;;;;;;20.97;14.05;;;;;;;2.36;95.18;100133.27;1801747;79;23558;-41
2022/01/25 16:06:22;;;;;;;20.45;13.78;;;;;;;2.25;95.15;100133.36;1761675;80;21527;-40
2022/01/25 16:08:49;;;;;;;26.12;16.15;;;;;;;2.35;95.33;100138.03;1761699;80;21035;-41
2022/01/25 16:11:15;;;;;;;27.80;15.48;;;;;;;2.29;95.36;100137.23;1762210;81;21070;-40
2022/01/25 16:13:44;;;;;;;22.32;12.95;;;;;;;2.29;95.36;100133.34;1761710;81;21579;-41
2022/01/25 16:16:11;;;;;;;21.60;13.90;;;;;;;2.26;95.40;100136.39;1762121;81;21058;-41
2022/01/25 16:18:40;;;;;;;25.92;14.53;;;;;;;2.27;95.37;100126.00;1761663;80;21579;-41
2022/01/25 16:21:08;;;;;;;25.55;15.18;;;;;;;2.29;95.34;100128.56;1761880;80;20987;-41
2022/01/25 16:23:35;;;;;;;23.20;14.58;;;;;;;2.22;95.32;100132.08;1761737;81;21003;-41
2022/01/25 16:26:02;;;;;;;22.55;14.75;;;;;;;2.28;95.25;100134.20;1762166;81;21078;-40
2022/01/25 16:28:28;;;;;;;27.13;15.63;;;;;;;2.33;95.29;100126.80;1762004;80;21084;-41
2022/01/25 16:31:05;;;;;;;27.37;17.73;;;;;;;2.34;95.30;100120.30;1761632;81;21066;-41
2022/01/25 16:33:25;;;;;;;31.68;18.55;;;;;;;2.33;95.07;100126.80;1760891;81;21063;-40
2022/01/25 16:35:51;;;;;;;34.18;19.48;;;;;;;2.32;94.98;100125.09;1761479;80;21066;-41
2022/01/25 16:38:17;;;;;;;30.70;18.60;;;;;;;2.32;95.15;100128.55;1762169;81;21027;-40
2022/01/25 16:40:43;;;;;;;25.40;16.67;;;;;;;2.33;95.25;100126.80;1761689;80;21519;-41
2022/01/25 16:43:09;;;;;;;26.07;17.95;;;;;;;2.44;95.17;100129.75;1761806;81;21007;-40
2022/01/25 16:45:36;;;;;;;27.30;18.35;;;;;;;2.43;94.76;100132.35;1761716;81;21085;-40
2022/01/25 16:48:03;;;;;;;43.43;27.00;;;;;;;2.45;94.85;100136.64;1762318;80;21063;-40
2022/01/25 16:50:35;;;;;;;32.80;18.82;;;;;;;2.38;95.22;100121.98;1761919;81;21007;-40
2022/01/25 16:52:57;;;;;;;29.35;17.50;;;;;;;2.45;95.15;100133.20;1760961;80;21028;-40
2022/01/25 16:55:23;;;;;;;27.05;17.73;;;;;;;2.44;94.91;100131.05;1762176;80;21023;-41
2022/01/25 16:57:50;;;;;;;29.45;18.40;;;;;;;2.41;94.92;100132.36;1761575;81;21078;-41
2022/01/25 17:00:18;;;;;;;31.93;18.03;;;;;;;2.38;95.12;100126.33;1762348;80;20991;-41
2022/01/25 17:02:45;;;;;;;25.30;16.85;;;;;;;2.41;95.42;100123.72;1747041;80;21095;-40
2022/01/25 17:05:12;;;;;;;28.17;17.87;;;;;;;2.40;95.34;100127.17;1743294;82;21075;-41
2022/01/25 17:07:38;;;;;;;26.77;16.87;;;;;;;2.38;95.53;100127.19;1745733;82;21019;-40
2022/01/25 17:10:06;;;;;;;24.30;14.87;;;;;;;2.44;95.44;100128.89;1746429;82;21544;-40
2022/01/25 17:12:34;;;;;;;27.22;17.02;;;;;;;2.42;95.10;100133.21;1746806;82;20999;-40
2022/01/25 17:15:02;;;;;;;25.90;17.42;;;;;;;2.44;95.22;100125.00;1745957;82;21616;-40
2022/01/25 17:17:28;;;;;;;25.45;16.60;;;;;;;2.49;95.00;100129.27;1746169;81;21034;-40
2022/01/25 17:19:54;;;;;;;24.37;15.55;;;;;;;2.42;95.51;100132.80;1746145;81;20999;-41
2022/01/25 17:22:20;;;;;;;22.62;15.72;;;;;;;2.38;95.56;100122.44;1746067;82;21026;-41
2022/01/25 17:24:46;;;;;;;61.28;34.03;;;;;;;2.41;95.75;100122.42;1746030;82;21015;-40
2022/01/25 17:27:11;;;;;;;30.57;18.92;;;;;;;2.38;96.19;100123.73;1746173;81;21070;-40
2022/01/25 17:29:37;;;;;;;26.30;17.75;;;;;;;2.43;95.77;100112.88;1746146;82;21010;-40
2022/01/25 17:32:05;;;;;;;35.30;20.23;;;;;;;2.45;95.72;100117.17;1745901;82;21055;-40
2022/01/25 17:34:32;;;;;;;32.58;19.85;;;;;;;2.47;95.66;100117.16;1746253;82;21277;-40
2022/01/25 17:36:58;;;;;;;37.40;21.42;;;;;;;2.50;95.71;100124.94;1745986;82;21015;-41
2022/01/25 17:39:24;;;;;;;36.77;23.00;;;;;;;2.49;95.78;100122.78;1746245;82;21062;-41
2022/01/25 17:41:50;;;;;;;54.42;33.23;;;;;;;2.48;95.83;100122.80;1745736;82;21019;-41
2022/01/25 17:44:16;;;;;;;44.33;26.97;;;;;;;2.54;95.72;100119.28;1746672;82;21039;-41
2022/01/25 17:46:43;;;;;;;41.53;23.30;;;;;;;2.57;95.66;100116.21;1746062;82;21071;-41
2022/01/25 17:49:10;;;;;;;32.85;20.40;;;;;;;2.64;95.30;100116.58;1745836;82;20948;-41
2022/01/25 17:51:38;;;;;;;;;;;;;;;2.73;95.14;100115.64;1748793;82;21092;-40
2022/01/25 17:54:04;;;;;;;;;;;;;;;2.61;95.24;100119.20;1748651;82;20130;-39
2022/01/25 17:56:31;;;;;;;51.13;24.75;;;;;;;2.60;95.32;100114.90;1741864;82;20292;-41
2022/01/25 17:58:57;;;;;;;36.88;17.67;;;;;;;2.58;95.35;100116.62;1739368;81;21040;-41
2022/01/25 18:01:25;;;;;;;25.45;16.17;;;;;;;2.67;95.06;100115.27;1739325;82;21012;-40
2022/01/25 18:03:51;;;;;;;37.70;20.15;;;;;;;2.63;94.83;100112.25;1739112;81;21059;-40
2022/01/25 18:06:18;;;;;;;61.13;24.60;;;;;;;2.57;94.99;100113.62;1739312;82;21031;-40
2022/01/25 18:08:44;;;;;;;42.57;20.17;;;;;;;2.55;94.85;100117.97;1739379;82;21193;-42
2022/01/25 18:11:11;;;;;;;66.12;26.80;;;;;;;2.56;95.19;100114.48;1739305;82;21027;-40
2022/01/25 18:13:37;;;;;;;39.53;20.55;;;;;;;2.56;95.50;100109.28;1739521;82;21591;-40
2022/01/25 18:16:05;;;;;;;43.68;21.97;;;;;;;2.64;95.07;100115.73;1739131;82;21537;-41
2022/01/25 18:18:31;;;;;;;;;;;;;;;2.62;94.88;100114.44;1741830;82;21012;-41
2022/01/25 18:20:57;;;;;;;31.68;17.30;;;;;;;2.55;95.34;100112.77;1739137;81;20416;-41
2022/01/25 18:23:29;;;;;;;39.92;20.77;;;;;;;2.43;95.55;100117.63;1739638;82;21107;-41
2022/01/25 18:28:26;;;;;;;56.40;30.55;;;;;;;2.44;96.23;100124.55;1739427;81;20944;-40
2022/01/25 18:30:54;;;;;;;40.67;21.68;;;;;;;2.46;96.27;100125.84;1739204;82;21066;-42
2022/01/25 18:33:21;;;;;;;57.27;23.60;;;;;;;2.51;96.02;100125.37;1739304;81;21016;-41
2022/01/25 18:35:47;;;;;;;40.50;19.48;;;;;;;2.54;95.69;100125.32;1739660;81;21508;-40
2022/01/25 18:38:18;;;;;;;33.00;18.80;;;;;;;2.57;95.77;100127.05;1739310;82;21067;-41
2022/01/25 18:40:45;;;;;;;38.53;18.10;;;;;;;2.61;95.73;100125.69;1739217;82;21055;-41
2022/01/25 18:43:12;;;;;;;;;;;;;;;2.61;95.65;100127.44;1741545;82;21167;-41
2022/01/25 18:45:38;;;;;;;38.70;17.33;;;;;;;2.59;95.50;100126.14;1739455;81;20126;-43
2022/01/25 18:48:05;;;;;;;32.88;16.85;;;;;;;2.59;95.50;100127.45;1739085;81;21075;-41
2022/01/25 18:50:33;;;;;;;26.90;15.13;;;;;;;2.57;95.59;100122.70;1739539;82;21019;-41
2022/01/25 18:52:59;;;;;;;28.55;15.58;;;;;;;2.57;95.38;100118.81;1739161;82;21004;-41
2022/01/25 18:55:26;;;;;;;29.23;16.00;;;;;;;2.56;95.71;100124.02;1738955;82;21742;-41
2022/01/25 18:57:53;;;;;;;61.35;21.55;;;;;;;2.56;96.22;100126.16;1741461;82;20992;-42
2022/01/25 19:00:20;;;;;;;66.77;28.73;;;;;;;2.53;96.13;100124.03;1746251;82;21050;-40
2022/01/25 19:02:47;;;;;;;56.25;25.43;;;;;;;2.55;96.22;100125.76;1745290;82;21059;-41
2022/01/25 19:05:18;;;;;;;68.20;31.68;;;;;;;2.61;96.46;100124.84;1741916;81;20996;-41
2022/01/25 19:07:45;;;;;;;64.00;29.42;;;;;;;2.66;95.82;100127.81;1737143;81;21110;-41
2022/01/25 19:10:14;;;;;;;59.23;27.17;;;;;;;2.67;95.87;100116.56;1748382;81;20964;-40
2022/01/25 19:12:40;;;;;;;47.90;24.43;;;;;;;2.69;95.57;100113.51;1748199;81;20964;-39
2022/01/25 19:15:08;;;;;;;45.30;21.52;;;;;;;2.72;95.27;100113.05;1747364;81;21022;-40
2022/01/25 19:17:34;;;;;;;51.33;24.65;;;;;;;2.78;95.21;100109.92;1748108;82;21493;-42
2022/01/25 19:19:59;;;;;;;65.57;32.90;;;;;;;2.75;95.31;100102.61;1748063;82;20992;-41
2022/01/25 19:22:27;;;;;;;47.80;25.15;;;;;;;2.81;95.21;100107.76;1747934;81;21008;-41
2022/01/25 19:24:54;;;;;;;;;;;;;;;2.79;95.46;100103.02;1750895;81;21031;-41
2022/01/25 19:27:20;;;;;;;42.23;22.58;;;;;;;2.79;95.14;100106.91;1748345;81;20125;-40
2022/01/25 19:29:47;;;;;;;58.78;29.80;;;;;;;2.72;95.71;100111.75;1748402;81;21046;-41
2022/01/25 19:32:14;;;;;;;56.92;26.50;;;;;;;2.68;95.92;100110.47;1748454;81;20980;-40
2022/01/25 19:34:40;;;;;;;;;;;;;;;2.72;95.67;100115.64;1750874;82;21526;-42
2022/01/25 19:37:10;;;;;;;86.67;34.30;;;;;;;2.76;95.33;100114.73;1748586;81;20441;-40
2022/01/25 19:39:37;;;;;;;94.42;37.15;;;;;;;2.76;95.44;100106.94;1748146;81;21389;-40
2022/01/25 19:42:10;;;;;;;59.15;24.87;;;;;;;2.71;95.43;100111.31;1748337;81;21060;-40
2022/01/25 19:44:37;;;;;;;83.52;31.45;;;;;;;2.74;95.83;100113.44;1748116;81;21103;-39
2022/01/25 19:47:05;;;;;;;38.78;19.45;;;;;;;2.81;95.68;100110.36;1748394;81;20980;-39
2022/01/25 19:49:31;;;;;;;51.85;22.82;;;;;;;2.81;95.30;100115.10;1748267;82;21015;-40
2022/01/25 19:51:58;;;;;;;85.95;38.28;;;;;;;2.80;95.08;100113.40;1748557;81;21047;-39
2022/01/25 19:54:29;;;;;;;57.23;30.10;;;;;;;2.75;95.57;100120.79;1748569;81;21052;-41
2022/01/25 19:56:54;;;;;;;62.25;33.18;;;;;;;2.82;95.55;100114.24;1747935;81;21106;-40
2022/01/25 19:59:21;;;;;;;40.85;23.65;;;;;;;2.84;95.36;100111.63;1747919;81;21020;-40
2022/01/25 20:01:48;;;;;;;;;;;;;;;2.90;95.09;100106.36;1750848;81;21035;-40
2022/01/25 20:04:14;;;;;;;50.17;29.67;;;;;;;2.87;94.95;100103.37;1757294;80;20127;-40
2022/01/25 20:06:42;;;;;;;31.93;19.12;;;;;;;2.84;95.01;100109.03;1761563;80;21019;-39
2022/01/25 20:09:08;;;;;;;;;;;;;;;2.81;94.88;100114.25;1764285;81;21060;-40
2022/01/25 20:11:36;;;;;;;53.70;30.10;;;;;;;2.77;95.10;100109.97;1761851;81;20400;-40
2022/01/25 20:14:04;;;;;;;45.15;21.90;;;;;;;2.73;95.39;100113.04;1761655;80;21002;-41
2022/01/25 20:16:34;;;;;;;33.02;18.20;;;;;;;2.77;95.36;100104.78;1761634;80;21039;-40
2022/01/25 20:18:58;;;;;;;42.85;22.00;;;;;;;2.78;95.27;100105.19;1744658;81;21115;-41
2022/01/25 20:21:33;;;;;;;44.83;24.80;;;;;;;2.81;95.40;100109.05;1761565;81;21045;-41
2022/01/25 20:26:37;;;;;;;46.58;20.95;;;;;;;2.85;95.41;100108.14;1761835;81;20980;-41
2022/01/25 20:29:53;;;;;;;49.93;29.42;;;;;;;2.83;95.39;100106.00;1761002;81;21557;-40
2022/01/25 20:31:33;;;;;;;29.55;17.35;;;;;;;2.91;95.11;100111.11;1741183;81;21002;-40
2022/01/25 20:33:58;;;;;;;;;;;;;;;2.91;94.99;100103.31;1763765;81;21082;-41
2022/01/25 20:36:26;;;;;;;43.63;22.00;;;;;;;2.83;95.11;100105.55;1761599;80;20124;-41
2022/01/25 20:38:51;;;;;;;39.33;19.90;;;;;;;2.88;95.18;100106.81;1761471;81;21059;-39
2022/01/25 20:41:17;;;;;;;37.20;19.10;;;;;;;2.94;95.18;100106.73;1761710;81;21038;-41
2022/01/25 20:43:44;;;;;;;29.07;16.82;;;;;;;2.96;94.89;100107.58;1761654;80;21011;-41
2022/01/25 20:46:11;;;;;;;44.83;19.33;;;;;;;2.97;94.90;100111.91;1761876;80;21030;-40
2022/01/25 20:48:37;;;;;;;42.88;20.43;;;;;;;2.96;94.75;100111.47;1761692;81;21010;-40
2022/01/25 20:51:09;;;;;;;36.45;18.57;;;;;;;3.01;94.72;100116.19;1761976;81;21067;-40
2022/01/25 20:53:36;;;;;;;31.33;16.90;;;;;;;3.07;94.56;100112.23;1761944;81;21102;-42
2022/01/25 20:56:05;;;;;;;33.35;18.17;;;;;;;3.11;94.57;100119.56;1761857;80;21472;-41
2022/01/25 20:58:33;;;;;;;39.65;20.90;;;;;;;3.10;94.39;100118.28;1761692;81;21508;-40
2022/01/25 21:01:05;;;;;;;51.80;22.75;;;;;;;3.12;94.49;100116.52;1761857;81;20980;-40
2022/01/25 21:08:51;;;;;;;50.80;21.33;;;;;;;3.13;94.08;100123.00;1748292;81;21079;-41
2022/01/25 21:11:18;;;;;;;38.05;17.95;;;;;;;3.11;94.01;100121.28;1748319;81;21011;-42
2022/01/25 21:13:47;;;;;;;59.00;28.57;;;;;;;3.09;94.07;100118.69;1748555;81;21027;-42
2022/01/25 21:16:14;;;;;;;44.95;21.40;;;;;;;3.14;93.90;100122.55;1748366;81;21067;-40
2022/01/25 21:18:41;;;;;;;41.10;21.40;;;;;;;3.16;93.82;100114.30;1748672;81;21066;-41
2022/01/25 21:21:10;;;;;;;44.38;21.48;;;;;;;3.06;93.72;100113.11;1748441;81;20984;-41
2022/01/25 21:23:39;;;;;;;43.48;20.20;;;;;;;3.03;93.84;100114.87;1748316;81;21511;-41
2022/01/25 21:26:05;;;;;;;40.40;21.15;;;;;;;3.08;93.97;100121.73;1748565;81;21012;-40
2022/01/25 21:28:31;;;;;;;37.83;21.25;;;;;;;3.12;94.06;100113.91;1748307;81;21515;-41
2022/01/25 21:30:58;;;;;;;36.30;19.37;;;;;;;3.18;93.86;100112.09;1748463;81;21028;-41
2022/01/25 21:33:25;;;;;;;39.25;22.02;;;;;;;3.15;93.66;100108.70;1748444;81;21520;-41
2022/01/25 21:35:53;;;;;;;39.00;22.67;;;;;;;3.10;93.78;100103.98;1748565;81;21064;-41
2022/01/25 21:38:22;;;;;;;47.10;22.82;;;;;;;3.14;93.73;100104.36;1748649;81;21536;-40
2022/01/25 21:40:50;;;;;;;40.48;21.48;;;;;;;3.17;93.79;100105.63;1748359;82;21528;-41
2022/01/25 21:43:18;;;;;;;39.98;21.50;;;;;;;3.19;93.68;100099.52;1748537;81;21070;-40
2022/01/25 21:45:46;;;;;;;38.63;21.15;;;;;;;3.22;93.57;100099.91;1748398;81;21579;-40
2022/01/25 21:48:13;;;;;;;48.48;22.50;;;;;;;3.22;93.51;100095.59;1748508;81;21003;-40
2022/01/25 21:50:39;;;;;;;33.78;21.15;;;;;;;3.12;93.47;100092.67;1748620;81;20976;-41
2022/01/25 21:53:05;;;;;;;31.15;18.65;;;;;;;3.14;93.53;100088.77;1748621;81;21023;-40
2022/01/25 21:55:36;;;;;;;34.63;19.05;;;;;;;3.09;93.72;100090.11;1748397;81;21532;-40
2022/01/25 21:58:03;;;;;;;33.25;19.50;;;;;;;3.07;93.65;100086.67;1748603;81;21513;-40
2022/01/25 22:00:30;;;;;;;;;;;;;;;3.00;93.78;100082.00;1750934;81;21059;-41
2022/01/25 22:03:01;;;;;;;31.85;19.10;;;;;;;2.94;94.11;100082.05;1748536;81;20448;-40
2022/01/25 22:05:29;;;;;;;35.60;18.80;;;;;;;2.95;94.22;100086.39;1760092;80;21083;-40
2022/01/25 22:08:00;;;;;;;40.52;19.42;;;;;;;3.01;93.94;100080.25;1761338;81;21323;-40
2022/01/25 22:10:29;;;;;;;35.00;20.27;;;;;;;2.99;94.07;100079.42;1761230;81;21525;-40
2022/01/25 22:12:57;;;;;;;38.90;22.90;;;;;;;2.95;93.97;100075.11;1761030;81;21508;-40
2022/01/25 22:15:22;;;;;;;;;;;;;;;2.93;94.17;100082.95;1764085;81;21019;-40
2022/01/25 22:17:56;;;;;;;32.23;19.05;;;;;;;2.82;94.37;100078.29;1761658;80;20452;-39
2022/01/25 22:20:24;;;;;;;37.88;21.02;;;;;;;2.88;94.48;100082.14;1761963;81;21039;-41
2022/01/25 22:22:52;;;;;;;38.70;21.40;;;;;;;2.94;94.13;100072.11;1761342;81;21019;-40
2022/01/25 22:25:20;;;;;;;;;;;;;;;2.93;94.00;100072.56;1764296;80;21578;-41
2022/01/25 22:27:49;;;;;;;35.15;18.37;;;;;;;2.95;94.20;100073.81;1761690;81;20136;-41
2022/01/25 22:30:17;;;;;;;37.23;22.30;;;;;;;2.90;93.99;100076.93;1761755;81;20999;-41
2022/01/25 22:32:46;;;;;;;26.62;15.80;;;;;;;2.93;93.88;100084.66;1761621;81;21512;-42
2022/01/25 22:35:14;;;;;;;27.48;15.40;;;;;;;2.89;93.87;100078.64;1761812;80;21031;-42
2022/01/25 22:37:44;;;;;;;30.82;15.68;;;;;;;2.87;93.84;100076.09;1761679;81;21045;-40
2022/01/25 22:40:13;;;;;;;22.52;13.08;;;;;;;2.88;93.83;100070.00;1761633;81;21038;-41
2022/01/25 22:42:40;;;;;;;25.75;13.95;;;;;;;2.87;93.34;100068.71;1761544;81;21492;-40
2022/01/25 22:45:10;;;;;;;26.05;13.58;;;;;;;2.87;93.13;100062.22;1761813;81;21062;-41
2022/01/25 22:47:41;;;;;;;37.60;15.32;;;;;;;2.87;93.17;100069.59;1761872;81;20995;-41
2022/01/25 22:50:13;;;;;;;20.15;11.55;;;;;;;2.84;92.98;100063.13;1761389;81;21015;-41
2022/01/25 22:52:39;;;;;;;19.20;10.60;;;;;;;2.83;93.02;100067.03;1761774;80;21042;-40
2022/01/25 22:55:07;;;;;;;27.82;12.70;;;;;;;2.79;92.85;100065.36;1761759;81;21504;-41
2022/01/25 22:57:34;;;;;;;26.40;11.97;;;;;;;2.81;92.87;100064.45;1761615;81;21026;-41
2022/01/25 23:00:01;;;;;;;24.80;12.58;;;;;;;2.79;93.04;100061.46;1761707;81;21015;-41
2022/01/25 23:02:28;;;;;;;19.25;10.98;;;;;;;2.82;92.97;100065.30;1761909;80;21022;-41
2022/01/25 23:04:57;;;;;;;22.80;12.83;;;;;;;2.90;92.80;100066.09;1761841;80;21070;-42
2022/01/25 23:07:29;;;;;;;27.52;15.28;;;;;;;2.85;92.79;100071.32;1761632;81;21007;-41
2022/01/25 23:09:58;;;;;;;24.77;11.90;;;;;;;2.87;92.77;100070.89;1761800;81;21038;-40
2022/01/25 23:14:59;;;;;;;15.53;9.93;;;;;;;2.84;92.51;100068.77;1761645;81;21559;-40
2022/01/25 23:17:21;;;;;;;28.15;13.30;;;;;;;2.83;92.63;100062.69;1760811;81;21063;-41
2022/01/25 23:19:56;;;;;;;;;;;;;;;2.87;92.70;100064.40;1763894;81;21062;-41
2022/01/25 23:22:15;;;;;;;19.50;9.83;;;;;;;2.90;92.57;100063.94;1760523;81;20155;-41
2022/01/25 23:24:41;;;;;;;12.20;7.53;;;;;;;2.85;92.07;100063.98;1761586;81;21003;-40
2022/01/25 23:27:09;;;;;;;14.17;8.17;;;;;;;2.84;91.75;100060.98;1761713;81;21101;-41
2022/01/25 23:29:36;;;;;;;15.08;8.08;;;;;;;2.73;91.58;100060.21;1761771;81;21066;-41
2022/01/25 23:34:58;;;;;;;11.85;7.42;;;;;;;2.62;91.92;100056.02;1761533;80;20992;-39
2022/01/25 23:37:12;;;;;;;12.10;7.45;;;;;;;2.57;91.93;100053.90;1759595;81;21059;-39
2022/01/25 23:39:44;;;;;;;16.73;7.85;;;;;;;2.60;92.17;100057.77;1761569;81;21087;-39
2022/01/25 23:42:12;;;;;;;16.60;8.35;;;;;;;2.60;92.04;100053.87;1760861;81;21039;-39
2022/01/25 23:44:44;;;;;;;13.15;7.78;;;;;;;2.51;92.17;100057.87;1761117;81;21554;-41
2022/01/25 23:47:20;;;;;;;;;;;;;;;2.45;92.23;100064.40;1762545;81;21062;-40
2022/01/25 23:49:43;;;;;;;14.50;8.85;;;;;;;2.38;92.27;100067.92;1758918;81;20203;-40
